Time;durP1;ratioP1;P1;durP2;ratioP2;P2;SDS_P1;SDS_P2;PMS_P1;PMS_P2;Temp;Humidity;BMP_temperature;BMP_pressure;BME280_temperature;BME280_humidity;BME280_pressure;Samples;Min_cycle;Max_cycle;Signal;HPM_P1;HPM_P2
2021/09/26 00:00:23;;;;;;;12.63;7.80;;;18.90;99.90;;;;;;5072866;28;20025;-76
2021/09/26 00:02:49;;;;;;;11.55;7.55;;;18.90;99.90;;;;;;5073583;28;20033;-76
2021/09/26 00:05:15;;;;;;;11.15;7.63;;;18.90;99.90;;;;;;5072503;28;20036;-76
2021/09/26 00:07:41;;;;;;;10.85;7.35;;;18.90;99.90;;;;;;5071703;28;20064;-76
2021/09/26 00:10:09;;;;;;;10.63;7.43;;;18.80;99.90;;;;;;5073478;28;20060;-76
2021/09/26 00:12:35;;;;;;;9.95;7.43;;;18.80;99.90;;;;;;5072843;28;20035;-76
2021/09/26 00:15:03;;;;;;;10.55;7.45;;;18.80;99.90;;;;;;5072200;28;20029;-76
2021/09/26 00:17:29;;;;;;;10.45;7.40;;;18.70;99.90;;;;;;5073170;28;20103;-76
2021/09/26 00:19:55;;;;;;;10.55;7.95;;;18.80;99.90;;;;;;5072252;28;20106;-76
2021/09/26 00:22:20;;;;;;;13.77;7.50;;;18.70;99.90;;;;;;5072876;28;20040;-77
2021/09/26 00:24:46;;;;;;;10.43;7.35;;;18.80;99.90;;;;;;5073253;28;20484;-76
2021/09/26 00:27:12;;;;;;;11.23;7.50;;;18.70;99.90;;;;;;5072332;28;20020;-77
2021/09/26 00:29:38;;;;;;;12.65;7.75;;;18.70;99.90;;;;;;5071640;28;20028;-76
2021/09/26 00:32:05;;;;;;;12.80;7.53;;;18.70;99.90;;;;;;5073079;28;20111;-76
2021/09/26 00:34:31;;;;;;;11.75;7.65;;;18.70;99.90;;;;;;5076972;28;20028;-76
2021/09/26 00:36:57;;;;;;;10.80;7.22;;;18.70;99.90;;;;;;5077380;28;20021;-76
2021/09/26 00:39:23;;;;;;;11.10;7.55;;;18.70;99.90;;;;;;5075458;28;20027;-76
2021/09/26 00:41:49;;;;;;;11.50;7.15;;;18.70;99.90;;;;;;5076038;28;20078;-76
2021/09/26 00:44:15;;;;;;;10.68;7.40;;;18.70;99.90;;;;;;5076063;28;20058;-76
2021/09/26 00:46:41;;;;;;;12.90;7.78;;;18.60;99.90;;;;;;5075411;28;20500;-76
2021/09/26 00:49:06;;;;;;;10.27;6.90;;;18.60;99.90;;;;;;5075431;28;20029;-76
2021/09/26 00:51:32;;;;;;;9.52;6.85;;;18.50;99.90;;;;;;5076670;28;20020;-76
2021/09/26 00:53:58;;;;;;;11.80;7.57;;;18.50;99.90;;;;;;5076951;28;20020;-76
2021/09/26 00:56:24;;;;;;;11.38;7.95;;;18.50;99.90;;;;;;5075246;28;20041;-76
2021/09/26 00:58:50;;;;;;;11.23;8.15;;;18.50;99.90;;;;;;5076813;28;20035;-76
2021/09/26 01:01:16;;;;;;;14.13;7.13;;;18.40;99.90;;;;;;5075815;28;20123;-76
2021/09/26 01:03:42;;;;;;;10.30;6.88;;;18.40;99.90;;;;;;5075034;28;20032;-76
2021/09/26 01:06:20;;;;;;;10.82;7.10;;;18.30;99.90;;;;;;5076857;28;20028;-76
2021/09/26 01:09:01;;;;;;;11.52;7.68;;;18.30;99.90;;;;;;5075327;28;20025;-76
2021/09/26 01:11:54;;;;;;;10.55;6.93;;;18.30;99.90;;;;;;5074967;28;20527;-76
2021/09/26 01:14:23;;;;;;;10.75;7.07;;;18.20;99.90;;;;;;5092514;28;20055;-76
2021/09/26 01:17:09;;;;;;;12.38;7.30;;;18.20;99.90;;;;;;5092371;28;20039;-76
2021/09/26 01:19:49;;;;;;;11.35;7.25;;;18.20;99.90;;;;;;5075967;28;20035;-76
2021/09/26 01:22:43;;;;;;;12.38;7.50;;;18.20;99.90;;;;;;5092279;28;20032;-76
2021/09/26 01:25:25;;;;;;;10.90;7.13;;;18.10;99.90;;;;;;5076341;28;20086;-76
2021/09/26 01:28:10;;;;;;;14.90;7.53;;;18.10;99.90;;;;;;5075528;28;20033;-76
2021/09/26 01:30:44;;;;;;;11.13;7.20;;;18.20;99.90;;;;;;5075679;28;20450;-76
2021/09/26 01:33:56;;;;;;;10.00;7.03;;;18.10;99.90;;;;;;5074913;28;20039;-76
2021/09/26 01:36:40;;;;;;;9.63;6.90;;;18.00;99.90;;;;;;5014178;28;20033;-76
2021/09/26 01:39:17;;;;;;;11.07;7.05;;;18.00;99.90;;;;;;5070797;28;20036;-76
2021/09/26 01:41:52;;;;;;;10.27;7.45;;;17.90;99.90;;;;;;5074515;28;20381;-76
2021/09/26 01:44:38;;;;;;;10.15;6.97;;;17.80;99.90;;;;;;5073046;28;20029;-76
2021/09/26 01:47:06;;;;;;;9.95;6.35;;;17.80;99.90;;;;;;5075714;28;20055;-76
2021/09/26 01:49:39;;;;;;;10.50;6.70;;;17.80;99.90;;;;;;5075559;28;20074;-76
2021/09/26 01:52:09;;;;;;;10.55;6.45;;;17.80;99.90;;;;;;5074881;28;20024;-76
2021/09/26 01:54:35;;;;;;;9.05;6.38;;;17.70;99.90;;;;;;5075412;28;20202;-76
2021/09/26 01:57:02;;;;;;;9.20;6.32;;;17.70;99.90;;;;;;5074481;28;20055;-76
2021/09/26 01:59:29;;;;;;;8.50;6.45;;;17.70;99.90;;;;;;5075332;28;20025;-76
2021/09/26 02:01:56;;;;;;;9.43;6.53;;;17.70;99.90;;;;;;5075492;28;20078;-76
2021/09/26 02:04:25;;;;;;;7.93;5.78;;;17.70;99.90;;;;;;5074275;28;20029;-76
2021/09/26 02:06:52;;;;;;;7.70;5.45;;;17.70;99.90;;;;;;5075736;28;20059;-76
2021/09/26 02:09:19;;;;;;;9.35;5.35;;;17.60;99.90;;;;;;5074443;28;20465;-76
2021/09/26 02:11:46;;;;;;;8.35;5.82;;;17.60;99.90;;;;;;5075033;28;20492;-76
2021/09/26 02:14:13;;;;;;;9.63;5.88;;;17.60;99.90;;;;;;5074643;28;20036;-76
2021/09/26 02:16:39;;;;;;;7.55;5.65;;;17.50;99.90;;;;;;5073859;28;20040;-76
2021/09/26 02:19:06;;;;;;;9.77;5.90;;;17.40;99.90;;;;;;5075441;28;20509;-76
2021/09/26 02:21:32;;;;;;;8.75;5.93;;;17.30;99.90;;;;;;5075253;28;20020;-76
2021/09/26 02:23:59;;;;;;;9.70;5.65;;;17.30;99.90;;;;;;5074707;28;20028;-76
2021/09/26 02:26:26;;;;;;;6.75;5.38;;;17.40;99.90;;;;;;5074188;28;20537;-75
2021/09/26 02:28:52;;;;;;;6.55;5.05;;;17.40;99.90;;;;;;5075591;28;20098;-76
2021/09/26 02:31:18;;;;;;;7.35;5.10;;;17.40;99.90;;;;;;5075388;28;20456;-76
2021/09/26 02:33:45;;;;;;;8.85;5.45;;;17.40;99.90;;;;;;5073558;28;20078;-75
2021/09/26 02:36:12;;;;;;;7.18;5.18;;;17.40;99.90;;;;;;5073856;28;20028;-76
2021/09/26 02:38:39;;;;;;;7.07;5.30;;;17.30;99.90;;;;;;5073538;28;20033;-76
2021/09/26 02:41:22;;;;;;;9.18;5.60;;;17.30;99.90;;;;;;5074980;28;20052;-76
2021/09/26 02:43:57;;;;;;;8.68;5.35;;;17.40;99.90;;;;;;5073530;28;20037;-76
2021/09/26 02:46:27;;;;;;;6.10;4.88;;;17.40;99.90;;;;;;5075005;28;20032;-76
2021/09/26 02:48:53;;;;;;;6.75;5.25;;;17.30;99.90;;;;;;5073373;28;20037;-76
2021/09/26 02:51:19;;;;;;;7.15;4.85;;;17.30;99.90;;;;;;5073567;28;20029;-76
2021/09/26 02:53:46;;;;;;;8.75;5.18;;;17.30;99.90;;;;;;5073276;28;20028;-76
2021/09/26 02:56:13;;;;;;;6.95;4.68;;;17.30;99.90;;;;;;5072872;28;20044;-76
2021/09/26 02:58:39;;;;;;;9.52;5.50;;;17.30;99.90;;;;;;5074341;28;20470;-76
2021/09/26 03:01:06;;;;;;;10.05;5.38;;;17.30;99.90;;;;;;5074806;28;20090;-76
2021/09/26 03:03:31;;;;;;;9.50;5.25;;;17.30;99.90;;;;;;5074061;28;20024;-76
2021/09/26 03:05:57;;;;;;;7.53;5.40;;;17.20;99.90;;;;;;5073470;28;20058;-76
2021/09/26 03:08:23;;;;;;;6.82;5.38;;;17.20;99.90;;;;;;5073537;28;20086;-76
2021/09/26 03:10:53;;;;;;;6.90;5.00;;;17.20;99.80;;;;;;5074034;28;20029;-76
2021/09/26 03:13:19;;;;;;;8.85;5.30;;;17.20;99.80;;;;;;5074516;28;20065;-76
2021/09/26 03:15:44;;;;;;;7.63;5.07;;;17.20;99.80;;;;;;5073906;28;20020;-76
2021/09/26 03:18:10;;;;;;;8.20;4.85;;;17.10;99.80;;;;;;5073097;28;20047;-76
2021/09/26 03:20:36;;;;;;;8.40;5.43;;;17.10;99.90;;;;;;5072623;28;20029;-76
2021/09/26 03:23:02;;;;;;;6.47;4.68;;;17.00;99.90;;;;;;5073957;28;20385;-76
2021/09/26 03:25:28;;;;;;;9.02;5.20;;;17.00;99.90;;;;;;5073352;28;20036;-76
2021/09/26 03:27:55;;;;;;;9.48;5.05;;;17.00;99.90;;;;;;5072727;28;20043;-76
2021/09/26 03:30:21;;;;;;;6.97;4.55;;;17.00;99.90;;;;;;5072899;28;20032;-76
2021/09/26 03:32:47;;;;;;;8.25;5.22;;;17.00;99.90;;;;;;5073603;28;20047;-76
2021/09/26 03:35:13;;;;;;;7.72;4.75;;;16.90;99.90;;;;;;5072582;28;20020;-76
2021/09/26 03:37:39;;;;;;;6.35;4.63;;;16.90;99.90;;;;;;5073152;28;20035;-76
2021/09/26 03:40:07;;;;;;;9.73;5.30;;;16.90;99.90;;;;;;5072496;28;20107;-76
2021/09/26 03:42:34;;;;;;;7.25;5.15;;;16.90;99.90;;;;;;5073032;28;20024;-76
2021/09/26 03:45:00;;;;;;;8.90;5.13;;;16.80;99.90;;;;;;5073653;28;20029;-76
2021/09/26 03:47:26;;;;;;;6.60;4.72;;;16.80;99.90;;;;;;5072498;28;20094;-76
2021/09/26 03:49:52;;;;;;;8.00;5.13;;;16.70;99.90;;;;;;5073099;28;20036;-76
2021/09/26 03:52:17;;;;;;;9.02;5.10;;;16.70;99.90;;;;;;5072422;28;20035;-76
2021/09/26 03:54:43;;;;;;;6.75;5.15;;;16.60;99.90;;;;;;5072777;28;20024;-76
2021/09/26 03:57:09;;;;;;;8.43;5.03;;;16.50;99.90;;;;;;5071872;28;20048;-75
2021/09/26 03:59:34;;;;;;;8.10;4.93;;;16.60;99.90;;;;;;5072969;28;20052;-76
2021/09/26 04:02:03;;;;;;;7.78;4.70;;;16.60;99.90;;;;;;5072317;28;20109;-76
2021/09/26 04:04:29;;;;;;;6.75;4.45;;;16.60;99.90;;;;;;5072394;28;20024;-76
2021/09/26 04:06:55;;;;;;;6.53;4.88;;;16.60;99.90;;;;;;5070844;28;20082;-76
2021/09/26 04:09:20;;;;;;;7.68;4.72;;;16.70;99.90;;;;;;5072342;28;20029;-76
2021/09/26 04:11:46;;;;;;;7.72;5.22;;;16.60;99.90;;;;;;5072949;28;20020;-76
2021/09/26 04:14:12;;;;;;;5.65;4.45;;;16.70;99.90;;;;;;5072480;28;20032;-76
2021/09/26 04:16:37;;;;;;;9.35;4.80;;;16.70;99.90;;;;;;5071697;28;20028;-77
2021/09/26 04:19:03;;;;;;;10.13;5.15;;;16.70;99.90;;;;;;5073352;28;20025;-76
2021/09/26 04:21:29;;;;;;;7.45;4.70;;;16.60;99.90;;;;;;5073332;28;20021;-76
2021/09/26 04:23:55;;;;;;;7.50;4.65;;;16.60;99.90;;;;;;5071651;28;20043;-76
2021/09/26 04:26:22;;;;;;;7.55;5.07;;;16.50;99.90;;;;;;5072395;28;20113;-76
2021/09/26 04:28:48;;;;;;;7.85;5.00;;;16.50;99.90;;;;;;5072866;28;20025;-76
2021/09/26 04:31:14;;;;;;;7.63;4.50;;;16.50;99.90;;;;;;5072266;28;20442;-76
2021/09/26 04:33:40;;;;;;;6.72;4.95;;;16.50;99.90;;;;;;5072959;28;20068;-77
2021/09/26 04:36:05;;;;;;;6.88;4.75;;;16.40;99.90;;;;;;5072039;28;20025;-76
2021/09/26 04:38:31;;;;;;;7.95;4.88;;;16.40;99.90;;;;;;5071909;28;20020;-76
2021/09/26 04:40:58;;;;;;;8.52;4.90;;;16.40;99.90;;;;;;5072719;28;20091;-76
2021/09/26 04:43:23;;;;;;;8.63;4.40;;;16.40;99.90;;;;;;5071923;28;20038;-76
2021/09/26 04:45:49;;;;;;;7.80;4.50;;;16.30;99.90;;;;;;5072350;28;20028;-76
2021/09/26 04:48:14;;;;;;;5.60;4.50;;;16.30;99.90;;;;;;5072834;28;20384;-76
2021/09/26 04:50:41;;;;;;;9.02;4.07;;;16.40;99.90;;;;;;5071502;28;20025;-76
2021/09/26 04:53:07;;;;;;;7.20;5.25;;;16.40;99.80;;;;;;5072144;28;20033;-76
2021/09/26 04:55:32;;;;;;;8.73;4.68;;;16.40;99.70;;;;;;5071585;28;20551;-76
2021/09/26 04:57:59;;;;;;;9.57;4.70;;;16.40;99.70;;;;;;5071427;28;20024;-76
2021/09/26 05:00:25;;;;;;;7.38;4.68;;;16.40;99.70;;;;;;5071577;28;20040;-76
2021/09/26 05:02:52;;;;;;;5.63;4.38;;;16.30;99.70;;;;;;5072260;28;20035;-77
2021/09/26 05:05:18;;;;;;;8.20;4.70;;;16.30;99.70;;;;;;5072937;28;20462;-76
2021/09/26 05:07:44;;;;;;;7.18;4.38;;;16.20;99.70;;;;;;5072497;28;20077;-77
2021/09/26 05:10:10;;;;;;;6.97;4.55;;;16.10;99.90;;;;;;5073042;28;20060;-76
2021/09/26 05:12:36;;;;;;;10.07;4.70;;;16.10;99.90;;;;;;5071807;28;20063;-80
2021/09/26 05:15:04;;;;;;;7.50;4.60;;;16.10;99.80;;;;;;5072997;28;20028;-76
2021/09/26 05:17:34;;;;;;;9.38;5.05;;;16.10;99.80;;;;;;5072859;28;20025;-76
2021/09/26 05:20:00;;;;;;;8.27;4.45;;;16.00;99.90;;;;;;5075071;28;20024;-76
2021/09/26 05:22:27;;;;;;;7.20;4.90;;;16.00;99.90;;;;;;5075459;28;20028;-76
2021/09/26 05:24:52;;;;;;;8.95;4.50;;;16.00;99.90;;;;;;5074874;28;20381;-76
2021/09/26 05:27:18;;;;;;;6.45;4.57;;;16.00;99.90;;;;;;5076183;28;20025;-77
2021/09/26 05:29:44;;;;;;;7.57;4.85;;;16.00;99.90;;;;;;5074714;28;20540;-76
2021/09/26 05:32:10;;;;;;;6.43;4.45;;;16.00;99.90;;;;;;5075469;28;20028;-76
2021/09/26 05:34:36;;;;;;;7.30;5.03;;;15.90;99.90;;;;;;5075301;28;20031;-76
2021/09/26 05:37:02;;;;;;;7.22;4.50;;;15.90;99.90;;;;;;5075986;28;20056;-76
2021/09/26 05:39:28;;;;;;;10.57;4.70;;;15.90;99.90;;;;;;5076336;28;20027;-76
2021/09/26 05:41:55;;;;;;;7.38;4.72;;;15.90;99.90;;;;;;5074641;28;20024;-76
2021/09/26 05:44:21;;;;;;;6.90;4.82;;;15.90;99.90;;;;;;5076342;28;20473;-76
2021/09/26 05:46:47;;;;;;;6.93;4.13;;;16.00;99.90;;;;;;5074378;28;20070;-76
2021/09/26 05:49:13;;;;;;;10.38;5.03;;;16.10;99.90;;;;;;5076205;28;20074;-76
2021/09/26 05:51:39;;;;;;;8.23;4.32;;;16.20;99.90;;;;;;5075617;28;20108;-78
2021/09/26 05:54:04;;;;;;;7.63;4.72;;;16.10;99.80;;;;;;5076103;28;20467;-76
2021/09/26 05:56:30;;;;;;;8.48;4.80;;;16.00;99.90;;;;;;5074663;28;20114;-76
2021/09/26 05:58:55;;;;;;;7.13;4.90;;;16.10;99.90;;;;;;5074546;28;20025;-76
2021/09/26 06:01:21;;;;;;;8.45;4.68;;;16.10;99.90;;;;;;5075875;28;20029;-76
2021/09/26 06:03:47;;;;;;;9.32;5.13;;;16.20;99.90;;;;;;5073979;28;20069;-76
2021/09/26 06:06:12;;;;;;;7.65;4.45;;;16.20;99.90;;;;;;5074611;28;20035;-77
2021/09/26 06:08:38;;;;;;;7.57;4.70;;;16.20;99.90;;;;;;5075901;28;20048;-76
2021/09/26 06:11:04;;;;;;;6.65;4.68;;;16.20;99.90;;;;;;5074221;28;20025;-76
2021/09/26 06:13:30;;;;;;;12.85;4.65;;;16.20;99.90;;;;;;5075612;28;20025;-76
2021/09/26 06:15:56;;;;;;;7.32;4.90;;;16.30;99.90;;;;;;5075303;28;20029;-76
2021/09/26 06:18:22;;;;;;;9.43;4.90;;;16.30;99.90;;;;;;5075549;28;20370;-76
2021/09/26 06:20:48;;;;;;;6.47;4.22;;;16.30;99.90;;;;;;5075161;28;20033;-76
2021/09/26 06:23:14;;;;;;;7.13;5.32;;;16.30;99.90;;;;;;5074380;28;20029;-76
2021/09/26 06:25:40;;;;;;;9.18;5.00;;;16.30;99.90;;;;;;5074391;28;20132;-79
2021/09/26 06:28:06;;;;;;;7.32;4.57;;;16.30;99.90;;;;;;5074252;28;20473;-76
2021/09/26 06:30:32;;;;;;;7.05;4.25;;;16.40;99.90;;;;;;5073575;28;20025;-76
2021/09/26 06:32:58;;;;;;;6.95;4.18;;;16.40;99.80;;;;;;5074626;28;20028;-76
2021/09/26 06:35:24;;;;;;;9.40;4.75;;;16.40;99.80;;;;;;5074133;28;20095;-76
2021/09/26 06:37:50;;;;;;;8.18;4.55;;;16.40;99.90;;;;;;5090216;28;20027;-76
2021/09/26 06:40:16;;;;;;;6.60;4.60;;;16.40;99.90;;;;;;5075016;28;20023;-76
2021/09/26 06:42:42;;;;;;;6.45;4.57;;;16.50;99.90;;;;;;5073119;28;20115;-78
2021/09/26 06:45:08;;;;;;;6.70;4.57;;;16.60;99.90;;;;;;5073956;28;20033;-76
2021/09/26 06:47:34;;;;;;;7.07;4.40;;;16.60;99.90;;;;;;5075194;28;20029;-76
2021/09/26 06:50:00;;;;;;;9.13;4.90;;;16.60;99.90;;;;;;5074644;28;20033;-76
2021/09/26 06:52:28;;;;;;;6.85;4.30;;;16.60;99.90;;;;;;5073583;28;20032;-76
2021/09/26 06:54:54;;;;;;;6.35;4.10;;;16.80;99.90;;;;;;5073263;28;20024;-76
2021/09/26 06:57:20;;;;;;;10.60;4.22;;;16.80;99.90;;;;;;5072996;28;20158;-76
2021/09/26 06:59:45;;;;;;;8.43;4.10;;;16.90;99.90;;;;;;5073364;28;20025;-77
2021/09/26 07:02:12;;;;;;;6.13;4.25;;;17.00;99.90;;;;;;5073724;28;20028;-76
2021/09/26 07:04:37;;;;;;;8.15;4.25;;;17.10;99.90;;;;;;5073787;28;20060;-76
2021/09/26 07:07:03;;;;;;;5.72;4.30;;;17.10;99.90;;;;;;5073120;28;20076;-76
2021/09/26 07:09:29;;;;;;;7.13;4.25;;;17.20;99.90;;;;;;5073557;28;20024;-76
2021/09/26 07:11:54;;;;;;;7.82;4.20;;;17.30;99.90;;;;;;5073067;28;20116;-77
2021/09/26 07:14:20;;;;;;;7.68;4.28;;;17.30;99.90;;;;;;5073491;28;20032;-77
2021/09/26 07:16:46;;;;;;;5.70;3.90;;;17.30;99.90;;;;;;5072753;28;20032;-78
2021/09/26 07:19:12;;;;;;;6.93;4.47;;;17.40;99.90;;;;;;5074574;28;20477;-76
2021/09/26 07:21:38;;;;;;;7.30;4.18;;;17.40;99.90;;;;;;5073213;28;20020;-76
2021/09/26 07:24:04;;;;;;;8.25;4.35;;;17.40;99.90;;;;;;5073868;28;20439;-76
2021/09/26 07:26:31;;;;;;;6.95;4.40;;;17.50;99.90;;;;;;5073113;28;20544;-76
2021/09/26 07:28:57;;;;;;;8.50;4.32;;;17.50;99.80;;;;;;5072626;28;20082;-76
2021/09/26 07:31:22;;;;;;;5.97;4.20;;;17.50;99.80;;;;;;5072943;28;20463;-76
2021/09/26 07:33:50;;;;;;;6.25;4.50;;;17.50;99.90;;;;;;5073542;28;20024;-76
2021/09/26 07:36:16;;;;;;;5.55;3.83;;;17.60;99.80;;;;;;5074135;28;20021;-76
2021/09/26 07:38:42;;;;;;;5.97;3.85;;;17.60;99.80;;;;;;5072776;28;20118;-76
2021/09/26 07:41:07;;;;;;;5.63;4.20;;;17.70;99.80;;;;;;5072050;28;20082;-76
2021/09/26 07:43:36;;;;;;;7.45;4.30;;;17.70;99.60;;;;;;5073662;28;20456;-76
2021/09/26 07:46:01;;;;;;;7.25;3.92;;;17.80;99.50;;;;;;5071926;28;20377;-76
2021/09/26 07:48:27;;;;;;;6.82;4.20;;;17.80;99.40;;;;;;5072610;28;20024;-76
2021/09/26 07:50:53;;;;;;;9.95;4.57;;;17.90;99.50;;;;;;5073199;28;20032;-76
2021/09/26 07:53:19;;;;;;;7.00;4.68;;;17.90;99.40;;;;;;5072454;28;20119;-76
2021/09/26 07:55:47;;;;;;;6.65;4.82;;;18.00;99.40;;;;;;5072306;28;20040;-76
2021/09/26 07:58:12;;;;;;;7.10;4.82;;;18.00;99.40;;;;;;5072616;28;20021;-76
2021/09/26 08:00:38;;;;;;;9.63;4.78;;;18.10;99.50;;;;;;5073479;28;20028;-76
2021/09/26 08:03:04;;;;;;;8.10;4.63;;;18.20;99.50;;;;;;5071863;28;20119;-76
2021/09/26 08:05:29;;;;;;;8.55;4.25;;;18.30;99.50;;;;;;5071989;28;20063;-77
2021/09/26 08:07:55;;;;;;;8.23;4.68;;;18.30;99.40;;;;;;5071635;28;20054;-76
2021/09/26 08:10:20;;;;;;;8.35;5.13;;;18.30;99.30;;;;;;5071876;28;20401;-76
2021/09/26 08:12:46;;;;;;;8.95;4.45;;;18.30;99.40;;;;;;5072734;28;20507;-80
2021/09/26 08:15:12;;;;;;;7.65;4.45;;;18.30;99.50;;;;;;5071933;28;20035;-76
2021/09/26 08:17:37;;;;;;;5.82;4.07;;;18.30;99.80;;;;;;5071838;28;20039;-77
2021/09/26 08:20:04;;;;;;;9.00;4.15;;;18.30;99.90;;;;;;5071606;28;20051;-77
2021/09/26 08:22:30;;;;;;;10.68;4.28;;;18.30;99.90;;;;;;5071947;28;20029;-76
2021/09/26 08:25:00;;;;;;;8.98;5.00;;;18.30;99.90;;;;;;5072498;28;20055;-76
2021/09/26 08:27:26;;;;;;;9.32;4.82;;;18.40;99.90;;;;;;5072182;28;20028;-76
2021/09/26 08:29:52;;;;;;;11.05;5.43;;;18.40;99.80;;;;;;5072889;28;20035;-77
2021/09/26 08:32:17;;;;;;;11.75;5.00;;;18.40;99.70;;;;;;5072070;28;20024;-76
2021/09/26 08:34:43;;;;;;;15.82;9.88;;;18.50;99.80;;;;;;5073214;28;20077;-76
2021/09/26 08:37:09;;;;;;;9.02;5.45;;;18.60;99.70;;;;;;5072562;28;20021;-75
2021/09/26 08:39:34;;;;;;;8.95;5.35;;;18.60;99.70;;;;;;5071710;28;20187;-76
2021/09/26 08:42:00;;;;;;;9.48;4.90;;;18.60;99.70;;;;;;5072349;28;20036;-76
2021/09/26 08:44:28;;;;;;;9.73;4.97;;;18.60;99.70;;;;;;5073020;28;20039;-76
2021/09/26 08:46:55;;;;;;;8.63;5.05;;;18.60;99.80;;;;;;5072133;28;20034;-76
2021/09/26 08:49:21;;;;;;;9.88;5.40;;;18.70;99.80;;;;;;5071748;28;20078;-76
2021/09/26 08:51:50;;;;;;;8.18;5.60;;;18.80;99.60;;;;;;5072562;28;20031;-75
2021/09/26 08:54:16;;;;;;;8.75;5.70;;;18.80;99.60;;;;;;5074422;28;20032;-76
2021/09/26 08:56:42;;;;;;;8.93;5.30;;;18.80;99.40;;;;;;5075027;28;20505;-76
2021/09/26 08:59:17;;;;;;;8.85;5.45;;;18.90;99.30;;;;;;5074949;28;20029;-75
2021/09/26 09:01:43;;;;;;;11.15;6.57;;;19.00;99.30;;;;;;5075432;28;20461;-76
2021/09/26 09:04:09;;;;;;;8.77;5.82;;;19.00;99.30;;;;;;5076104;28;20024;-75
2021/09/26 09:06:43;;;;;;;10.10;6.00;;;19.00;99.20;;;;;;5075357;28;20020;-76
2021/09/26 09:09:15;;;;;;;10.27;5.57;;;19.00;99.10;;;;;;5075993;28;20016;-76
2021/09/26 09:11:42;;;;;;;11.25;5.60;;;19.00;99.00;;;;;;5076365;28;20026;-76
2021/09/26 09:14:08;;;;;;;8.88;4.95;;;19.00;99.00;;;;;;5074672;28;20040;-76
2021/09/26 09:16:34;;;;;;;9.25;4.95;;;19.10;99.10;;;;;;5074977;28;20553;-75
2021/09/26 09:19:00;;;;;;;8.15;5.13;;;19.10;98.70;;;;;;5074518;28;20474;-76
2021/09/26 09:21:33;;;;;;;9.60;5.30;;;19.10;98.50;;;;;;5076221;28;20024;-76
2021/09/26 09:24:23;;;;;;;8.45;5.35;;;19.20;98.60;;;;;;5074181;28;20038;-76
2021/09/26 09:26:48;;;;;;;8.23;5.00;;;19.10;98.90;;;;;;5075097;28;20388;-76
2021/09/26 09:29:15;;;;;;;10.85;5.25;;;19.10;99.00;;;;;;5074405;28;20115;-76
2021/09/26 09:32:14;;;;;;;9.75;5.65;;;19.00;99.10;;;;;;5074436;28;20056;-76
2021/09/26 09:34:41;;;;;;;13.48;5.80;;;19.00;99.10;;;;;;5074986;28;20358;-76
2021/09/26 09:37:21;;;;;;;8.52;5.38;;;19.10;99.10;;;;;;5074208;28;20027;-76
2021/09/26 09:40:25;;;;;;;10.07;5.90;;;19.20;99.00;;;;;;5074694;28;20465;-76
2021/09/26 09:42:53;;;;;;;7.22;4.97;;;19.30;98.80;;;;;;4997409;28;20038;-76
2021/09/26 09:45:26;;;;;;;8.68;5.18;;;19.50;98.50;;;;;;4997213;28;20030;-76
2021/09/26 09:47:59;;;;;;;11.25;5.55;;;19.50;98.40;;;;;;4997109;28;20394;-80
2021/09/26 09:50:34;;;;;;;9.38;4.45;;;19.60;98.50;;;;;;5030177;28;20419;-76
2021/09/26 09:53:00;;;;;;;10.57;5.18;;;19.60;98.30;;;;;;5013437;28;20526;-76
2021/09/26 09:55:27;;;;;;;10.40;5.40;;;19.70;98.40;;;;;;4996831;28;20050;-76
2021/09/26 09:58:09;;;;;;;8.00;5.80;;;19.70;98.10;;;;;;4996914;28;20552;-79
2021/09/26 10:00:49;;;;;;;7.55;5.10;;;19.60;98.00;;;;;;4997689;28;20044;-76
2021/09/26 10:03:42;;;;;;;13.52;8.30;;;19.60;98.10;;;;;;5013225;28;20044;-75
2021/09/26 10:06:21;;;;;;;11.35;5.68;;;19.60;98.20;;;;;;5011721;28;20030;-76
2021/09/26 10:08:48;;;;;;;8.18;5.97;;;19.60;98.30;;;;;;5029823;28;20026;-76
2021/09/26 10:11:14;;;;;;;9.38;6.00;;;19.70;97.90;;;;;;5012798;28;20038;-76
2021/09/26 10:13:39;;;;;;;8.93;5.60;;;19.80;97.80;;;;;;5036517;28;20037;-76
2021/09/26 10:16:07;;;;;;;8.30;5.00;;;19.80;97.90;;;;;;5075210;28;20454;-76
2021/09/26 10:18:34;;;;;;;10.50;5.97;;;19.80;98.00;;;;;;5073988;28;20050;-76
2021/09/26 10:21:02;;;;;;;9.50;5.65;;;19.80;98.20;;;;;;5073592;28;20454;-76
2021/09/26 10:23:28;;;;;;;8.60;5.30;;;19.80;98.00;;;;;;5074593;28;20035;-76
2021/09/26 10:25:56;;;;;;;9.38;5.38;;;19.90;98.00;;;;;;5073724;28;20124;-76
2021/09/26 10:28:27;;;;;;;8.63;5.18;;;20.00;97.80;;;;;;5074777;28;20021;-76
2021/09/26 10:31:00;;;;;;;8.07;5.57;;;20.10;97.60;;;;;;5073851;28;20032;-76
2021/09/26 10:33:27;;;;;;;10.68;5.63;;;20.20;97.30;;;;;;5073763;28;20039;-76
2021/09/26 10:35:55;;;;;;;11.63;5.75;;;20.20;97.20;;;;;;5073649;28;20032;-76
2021/09/26 10:38:21;;;;;;;8.30;5.50;;;20.30;97.00;;;;;;5073673;28;20025;-76
2021/09/26 10:40:48;;;;;;;11.07;5.28;;;20.30;97.00;;;;;;5073498;28;20491;-76
2021/09/26 10:43:41;;;;;;;10.50;5.78;;;20.40;96.80;;;;;;5074009;28;20162;-76
2021/09/26 10:46:19;;;;;;;8.27;5.55;;;20.50;96.40;;;;;;5070829;28;20051;-77
2021/09/26 10:48:56;;;;;;;9.73;5.30;;;20.50;96.50;;;;;;5090578;28;20033;-76
2021/09/26 10:51:55;;;;;;;9.93;5.68;;;20.70;96.30;;;;;;5074550;28;20056;-76
2021/09/26 10:54:28;;;;;;;8.70;5.55;;;20.80;96.30;;;;;;5072831;28;20025;-76
2021/09/26 10:57:13;;;;;;;11.07;6.05;;;20.70;96.40;;;;;;5073434;28;20413;-76
2021/09/26 10:59:40;;;;;;;7.78;5.25;;;20.70;96.50;;;;;;5074049;28;20056;-76
2021/09/26 11:02:21;;;;;;;9.57;5.35;;;20.70;96.70;;;;;;5072709;28;20036;-76
2021/09/26 11:04:47;;;;;;;8.27;5.90;;;20.70;97.00;;;;;;5090049;28;20569;-76
2021/09/26 11:07:22;;;;;;;8.75;5.75;;;20.70;96.70;;;;;;5073723;28;20016;-76
2021/09/26 11:09:56;;;;;;;10.73;5.90;;;20.80;96.50;;;;;;5074346;28;20060;-77
2021/09/26 11:13:05;;;;;;;8.57;5.85;;;20.90;96.60;;;;;;5072497;28;20037;-76
2021/09/26 11:15:31;;;;;;;8.85;5.38;;;20.90;96.40;;;;;;5044581;28;20587;-77
2021/09/26 11:17:58;;;;;;;9.25;6.15;;;21.00;96.30;;;;;;5072614;28;20124;-76
2021/09/26 11:20:29;;;;;;;8.27;5.22;;;21.00;96.30;;;;;;5073024;28;20043;-76
2021/09/26 11:23:04;;;;;;;8.02;5.57;;;21.00;96.30;;;;;;5089568;28;20433;-76
2021/09/26 11:25:58;;;;;;;9.80;5.47;;;21.10;96.10;;;;;;5073919;28;20025;-76
2021/09/26 11:28:25;;;;;;;9.88;5.85;;;21.20;96.10;;;;;;5089596;28;20078;-76
2021/09/26 11:30:53;;;;;;;8.38;5.45;;;21.20;95.90;;;;;;5072583;28;20147;-76
2021/09/26 11:33:19;;;;;;;9.77;5.50;;;21.20;95.50;;;;;;5073324;28;20109;-76
2021/09/26 11:35:45;;;;;;;9.40;5.80;;;21.20;95.30;;;;;;5072427;28;20426;-76
2021/09/26 11:38:18;;;;;;;7.47;5.28;;;21.40;95.50;;;;;;5071738;28;20052;-76
2021/09/26 11:40:55;;;;;;;8.73;5.78;;;21.40;95.40;;;;;;5073479;28;20025;-77
2021/09/26 11:43:36;;;;;;;11.63;5.78;;;21.50;95.20;;;;;;5072952;28;20028;-76
2021/09/26 11:46:15;;;;;;;8.55;5.15;;;21.60;94.90;;;;;;5073191;28;20024;-78
2021/09/26 11:48:41;;;;;;;10.23;6.13;;;21.80;94.30;;;;;;5072377;28;20043;-76
2021/09/26 11:51:11;;;;;;;6.35;5.03;;;21.90;94.00;;;;;;5071717;28;20028;-77
2021/09/26 11:53:37;;;;;;;9.10;5.68;;;22.00;94.20;;;;;;5073292;28;20051;-77
2021/09/26 11:56:15;;;;;;;8.40;5.53;;;22.00;94.20;;;;;;5071533;28;20053;-77
2021/09/26 11:58:42;;;;;;;8.48;5.55;;;22.10;94.40;;;;;;5072180;28;20025;-76
2021/09/26 12:01:07;;;;;;;8.13;5.45;;;22.20;94.30;;;;;;5071722;28;20405;-77
2021/09/26 12:03:33;;;;;;;9.38;6.00;;;22.30;93.90;;;;;;5072475;28;20029;-76
2021/09/26 12:06:00;;;;;;;8.43;5.57;;;22.20;93.90;;;;;;5073279;28;20416;-76
2021/09/26 12:08:36;;;;;;;11.40;5.65;;;22.10;94.40;;;;;;5073321;28;20078;-76
2021/09/26 12:11:07;;;;;;;8.63;5.30;;;21.90;94.40;;;;;;5071741;28;20093;-78
2021/09/26 12:13:46;;;;;;;7.80;5.63;;;21.90;94.60;;;;;;5072011;28;20032;-76
2021/09/26 12:16:12;;;;;;;8.70;5.68;;;22.00;94.60;;;;;;5071475;28;20032;-76
2021/09/26 12:18:38;;;;;;;7.68;5.50;;;22.00;94.50;;;;;;5073087;28;20040;-76
2021/09/26 12:21:08;;;;;;;10.52;5.50;;;22.00;94.70;;;;;;5071421;28;20025;-76
2021/09/26 12:24:07;;;;;;;8.50;5.53;;;21.90;94.60;;;;;;5071822;28;20028;-76
2021/09/26 12:26:40;;;;;;;6.82;4.90;;;21.70;94.80;;;;;;5057418;28;20068;-76
2021/09/26 12:29:21;;;;;;;7.25;4.90;;;21.60;94.60;;;;;;5070283;28;20025;-76
2021/09/26 12:31:51;;;;;;;11.43;5.18;;;21.60;94.60;;;;;;5071839;28;20477;-76
2021/09/26 12:34:45;;;;;;;7.35;5.68;;;21.50;94.70;;;;;;5072505;28;20162;-76
2021/09/26 12:37:21;;;;;;;8.38;5.95;;;21.50;94.80;;;;;;5071201;28;20025;-76
2021/09/26 12:39:51;;;;;;;9.52;6.30;;;21.50;95.20;;;;;;5071749;28;20111;-76
2021/09/26 12:42:24;;;;;;;13.05;8.43;;;21.60;95.00;;;;;;5071267;28;20060;-76
2021/09/26 12:44:50;;;;;;;10.40;6.32;;;21.60;95.30;;;;;;5071531;28;20047;-76
2021/09/26 12:47:20;;;;;;;8.93;6.28;;;21.70;94.90;;;;;;5070882;28;20032;-76
2021/09/26 12:49:48;;;;;;;8.73;5.70;;;21.70;95.20;;;;;;5071521;28;20028;-76
2021/09/26 12:52:15;;;;;;;10.63;6.40;;;21.70;94.70;;;;;;5072396;28;20256;-76